Time;durP1;ratioP1;P1;durP2;ratioP2;P2;SDS_P1;SDS_P2;PMS_P1;PMS_P2;Temp;Humidity;BMP_temperature;BMP_pressure;BME280_temperature;BME280_humidity;BME280_pressure;Samples;Min_cycle;Max_cycle;Signal;HPM_P1;HPM_P2
2021/04/26 00:00:21;;;;;;;8.23;3.35;;;;;;;2.88;56.05;100729.41;1647073;87;21139;-81
2021/04/26 00:02:48;;;;;;;7.75;3.25;;;;;;;2.85;55.98;100725.60;1647055;86;21213;-81
2021/04/26 00:05:16;;;;;;;9.00;4.25;;;;;;;2.84;56.25;100727.81;1647067;87;21556;-81
2021/04/26 00:07:43;;;;;;;6.60;3.60;;;;;;;2.81;56.37;100730.07;1647002;87;21628;-81
2021/04/26 00:10:12;;;;;;;6.87;3.52;;;;;;;2.79;56.24;100728.80;1647130;87;21584;-81
2021/04/26 00:12:39;;;;;;;8.40;3.35;;;;;;;2.78;56.30;100731.02;1646855;87;21714;-81
2021/04/26 00:15:09;;;;;;;7.22;3.25;;;;;;;2.77;56.29;100734.54;1641555;87;21212;-81
2021/04/26 00:17:37;;;;;;;9.45;4.35;;;;;;;2.76;56.48;100728.06;1646847;87;21285;-81
2021/04/26 00:20:09;;;;;;;6.28;3.52;;;;;;;2.73;56.10;100724.25;1646992;87;21628;-81
2021/04/26 00:22:36;;;;;;;8.45;3.67;;;;;;;2.71;55.95;100729.98;1646979;87;21514;-81
2021/04/26 00:25:06;;;;;;;10.28;5.03;;;;;;;2.69;56.43;100727.41;1646935;87;21189;-81
2021/04/26 00:27:35;;;;;;;6.78;3.83;;;;;;;2.69;56.19;100729.17;1646988;87;21181;-81
2021/04/26 00:30:07;;;;;;;8.75;4.42;;;;;;;2.67;56.44;100722.73;1646855;87;21208;-81
2021/04/26 00:32:34;;;;;;;9.25;4.08;;;;;;;2.66;56.65;100724.91;1647144;87;21153;-81
2021/04/26 00:35:02;;;;;;;7.50;4.17;;;;;;;2.65;56.01;100724.52;1646936;87;21204;-81
2021/04/26 00:37:29;;;;;;;8.83;5.50;;;;;;;2.65;56.62;100723.22;1646802;87;21346;-81
2021/04/26 00:39:56;;;;;;;12.90;4.78;;;;;;;2.65;56.59;100718.00;1647001;87;21179;-81
2021/04/26 00:42:23;;;;;;;8.55;5.03;;;;;;;2.66;56.70;100723.61;1646967;87;21139;-81
2021/04/26 00:44:51;;;;;;;11.08;5.30;;;;;;;2.66;56.88;100718.85;1647105;87;21348;-81
2021/04/26 00:47:20;;;;;;;10.68;5.03;;;;;;;2.66;56.71;100712.34;1646892;87;21159;-81
2021/04/26 00:49:47;;;;;;;10.20;4.60;;;;;;;2.64;56.78;100713.70;1647015;87;21572;-81
2021/04/26 00:52:14;;;;;;;9.98;4.95;;;;;;;2.63;56.62;100711.14;1646964;87;21186;-81
2021/04/26 00:54:42;;;;;;;11.20;5.35;;;;;;;2.61;56.71;100705.99;1647171;87;21553;-81
2021/04/26 00:57:09;;;;;;;10.95;5.03;;;;;;;2.61;56.88;100710.36;1646901;87;21546;-81
2021/04/26 00:59:36;;;;;;;9.93;4.58;;;;;;;2.56;56.93;100706.58;1647041;87;21707;-81
2021/04/26 01:02:04;;;;;;;12.13;5.15;;;;;;;2.56;56.91;100706.12;1647050;87;21566;-81
2021/04/26 01:04:31;;;;;;;14.15;6.62;;;;;;;2.54;56.81;100703.20;1647019;87;21244;-81
2021/04/26 01:06:58;;;;;;;12.50;6.22;;;;;;;2.51;56.95;100705.91;1647020;87;21200;-81
2021/04/26 01:09:25;;;;;;;16.57;7.03;;;;;;;2.49;57.15;100705.94;1647352;87;21127;-81
2021/04/26 01:12:06;;;;;;;15.40;7.40;;;;;;;2.45;56.88;100703.04;1646907;87;21178;-81
2021/04/26 01:15:03;;;;;;;15.63;7.85;;;;;;;2.43;57.18;100700.92;1646036;86;21123;-83
2021/04/26 01:17:34;;;;;;;15.72;7.58;;;;;;;2.40;57.41;100710.59;1646824;87;21604;-81
2021/04/26 01:20:23;;;;;;;17.55;8.98;;;;;;;2.35;57.43;100705.09;1646928;87;21185;-81
2021/04/26 01:23:27;;;;;;;17.57;8.13;;;;;;;2.34;57.20;100705.16;1646878;87;21143;-81
2021/04/26 01:25:54;;;;;;;14.85;8.30;;;;;;;2.29;57.31;100700.08;1622144;88;21549;-81
2021/04/26 01:28:29;;;;;;;14.60;7.15;;;;;;;2.22;57.44;100697.28;1642070;87;21633;-81
2021/04/26 01:31:15;;;;;;;13.03;6.37;;;;;;;2.17;57.59;100695.25;1664762;85;21142;-81
2021/04/26 01:33:48;;;;;;;14.35;8.45;;;;;;;2.15;57.61;100693.63;1675639;85;21594;-81
2021/04/26 01:36:20;;;;;;;11.93;5.75;;;;;;;2.11;57.94;100692.88;1666382;85;21135;-81
2021/04/26 01:38:49;;;;;;;10.48;5.10;;;;;;;2.08;57.71;100689.91;1647098;86;21173;-81
2021/04/26 01:41:18;;;;;;;10.63;5.53;;;;;;;2.07;57.62;100693.43;1647145;87;21584;-81
2021/04/26 01:43:46;;;;;;;12.40;5.50;;;;;;;2.04;57.59;100684.41;1646856;87;21141;-81
2021/04/26 01:46:16;;;;;;;10.35;5.85;;;;;;;2.00;57.56;100681.48;1646912;87;21134;-81
2021/04/26 01:48:47;;;;;;;11.25;6.00;;;;;;;1.97;57.48;100679.42;1646865;87;21192;-81
2021/04/26 01:51:15;;;;;;;11.45;6.15;;;;;;;1.94;57.73;100681.70;1647031;87;21151;-81
2021/04/26 01:53:46;;;;;;;9.18;4.87;;;;;;;1.89;57.68;100673.17;1646904;87;21205;-81
2021/04/26 01:56:16;;;;;;;11.00;4.75;;;;;;;1.85;57.54;100672.41;1647023;87;21124;-81
2021/04/26 01:58:48;;;;;;;10.18;5.05;;;;;;;1.82;57.58;100671.66;1646962;87;21127;-81
2021/04/26 02:01:20;;;;;;;11.43;4.97;;;;;;;1.79;57.86;100675.20;1618862;87;21149;-81
2021/04/26 02:03:52;;;;;;;9.35;5.05;;;;;;;1.78;58.00;100674.81;1646982;87;21173;-81
2021/04/26 02:06:20;;;;;;;7.60;3.90;;;;;;;1.76;57.77;100664.89;1646128;87;21617;-81
2021/04/26 02:08:48;;;;;;;10.03;4.53;;;;;;;1.74;57.75;100665.83;1646893;87;21138;-81
2021/04/26 02:11:15;;;;;;;7.60;3.80;;;;;;;1.72;57.92;100663.28;1647073;87;21123;-81
2021/04/26 02:13:44;;;;;;;8.73;3.92;;;;;;;1.71;57.74;100662.02;1646924;87;21115;-81
2021/04/26 02:16:11;;;;;;;6.05;3.05;;;;;;;1.69;57.66;100665.98;1647139;87;21154;-81
2021/04/26 02:18:38;;;;;;;7.35;3.08;;;;;;;1.66;57.93;100659.56;1646907;87;21178;-81
2021/04/26 02:21:05;;;;;;;8.53;3.80;;;;;;;1.62;57.74;100664.02;1646984;87;21281;-81
2021/04/26 02:23:32;;;;;;;10.32;3.85;;;;;;;1.61;57.82;100666.22;1646962;87;22431;-81
2021/04/26 02:26:00;;;;;;;11.78;3.77;;;;;;;1.58;57.76;100652.42;1647112;87;21182;-81
2021/04/26 02:28:27;;;;;;;8.20;3.35;;;;;;;1.54;57.90;100662.08;1646837;87;21155;-81
2021/04/26 02:30:58;;;;;;;6.90;3.60;;;;;;;1.52;57.78;100657.84;1646883;87;21581;-81
2021/04/26 02:33:39;;;;;;;8.58;3.65;;;;;;;1.48;57.80;100660.98;1646951;87;21585;-80
2021/04/26 02:36:11;;;;;;;5.65;2.92;;;;;;;1.44;57.89;100654.60;1647162;87;21657;-80
2021/04/26 02:38:46;;;;;;;10.80;4.72;;;;;;;1.42;57.99;100660.31;1646471;87;21642;-83
2021/04/26 02:41:16;;;;;;;11.53;4.17;;;;;;;1.38;57.80;100659.11;1646813;86;21135;-81
2021/04/26 02:43:55;;;;;;;7.80;3.58;;;;;;;1.36;57.93;100659.59;1646473;86;21179;-81
2021/04/26 02:46:27;;;;;;;7.08;3.77;;;;;;;1.35;58.17;100661.80;1646916;86;21139;-81
2021/04/26 02:48:56;;;;;;;9.98;3.80;;;;;;;1.30;58.03;100652.41;1647101;87;21225;-81
2021/04/26 02:51:27;;;;;;;9.95;4.75;;;;;;;1.26;58.35;100660.75;1646966;87;21137;-81
2021/04/26 02:53:55;;;;;;;9.35;3.70;;;;;;;1.22;58.35;100655.25;1646871;87;21229;-81
2021/04/26 02:56:22;;;;;;;11.00;4.72;;;;;;;1.20;58.21;100661.38;1647035;87;21287;-81
2021/04/26 02:58:54;;;;;;;8.50;4.20;;;;;;;1.15;58.55;100660.19;1646937;87;21162;-81
2021/04/26 03:01:21;;;;;;;10.48;4.45;;;;;;;1.11;58.60;100663.78;1646951;87;21214;-81
2021/04/26 03:03:50;;;;;;;8.20;4.30;;;;;;;1.09;58.72;100662.99;1646826;87;21280;-81
2021/04/26 03:06:17;;;;;;;10.20;5.80;;;;;;;1.04;58.89;100657.05;1646975;87;21143;-81
2021/04/26 03:08:46;;;;;;;12.28;5.33;;;;;;;1.01;58.68;100657.98;1646964;87;21134;-81
2021/04/26 03:11:15;;;;;;;14.43;5.75;;;;;;;0.99;58.74;100663.69;1647023;87;21554;-81
2021/04/26 03:13:43;;;;;;;10.85;5.20;;;;;;;0.97;58.85;100665.92;1646800;87;21204;-81
2021/04/26 03:16:11;;;;;;;11.97;4.40;;;;;;;0.94;58.99;100665.09;1618967;87;21159;-81
2021/04/26 03:18:40;;;;;;;11.18;4.80;;;;;;;0.93;59.24;100665.16;1646927;87;21297;-81
2021/04/26 03:21:10;;;;;;;11.50;4.60;;;;;;;0.91;59.23;100659.98;1647069;87;21498;-81
2021/04/26 03:23:39;;;;;;;11.25;4.95;;;;;;;0.89;59.17;100661.80;1646889;87;21131;-81
2021/04/26 03:26:09;;;;;;;10.88;4.75;;;;;;;0.88;59.49;100657.47;1618751;87;21194;-81
2021/04/26 03:28:42;;;;;;;8.78;4.22;;;;;;;0.89;59.40;100658.34;1646801;87;21166;-81
2021/04/26 03:31:10;;;;;;;8.55;4.03;;;;;;;0.87;59.52;100661.42;1646915;87;21168;-81
2021/04/26 03:33:39;;;;;;;14.50;5.12;;;;;;;0.83;59.60;100659.36;1646970;87;21546;-81
2021/04/26 03:36:07;;;;;;;9.28;4.50;;;;;;;0.83;59.91;100659.81;1646974;87;21123;-81
2021/04/26 03:38:37;;;;;;;11.38;5.40;;;;;;;0.83;59.80;100659.36;1646847;87;21167;-81
2021/04/26 03:41:05;;;;;;;9.75;4.80;;;;;;;0.84;60.05;100660.20;1646963;87;21126;-81
2021/04/26 03:43:32;;;;;;;11.97;5.28;;;;;;;0.83;59.95;100663.70;1618738;87;21719;-81
2021/04/26 03:46:00;;;;;;;14.95;6.80;;;;;;;0.82;59.89;100662.83;1646870;87;21153;-81
2021/04/26 03:48:27;;;;;;;13.60;5.20;;;;;;;0.79;59.97;100664.23;1646809;87;21308;-81
2021/04/26 03:50:54;;;;;;;9.93;5.62;;;;;;;0.76;60.19;100661.72;1646956;87;21171;-81
2021/04/26 03:53:21;;;;;;;11.68;5.85;;;;;;;0.74;60.47;100659.60;1646827;87;21163;-81
2021/04/26 03:55:48;;;;;;;16.52;7.90;;;;;;;0.72;60.26;100660.53;1646993;87;21135;-81
2021/04/26 03:58:15;;;;;;;13.43;6.28;;;;;;;0.69;60.46;100662.75;1646851;87;21127;-81
2021/04/26 04:00:42;;;;;;;11.88;5.00;;;;;;;0.67;60.64;100661.95;1646784;87;21565;-81
2021/04/26 04:03:10;;;;;;;8.95;5.17;;;;;;;0.66;60.60;100674.55;1646788;87;21574;-81
2021/04/26 04:05:38;;;;;;;13.75;4.92;;;;;;;0.65;60.69;100667.63;1647066;87;21584;-81
2021/04/26 04:08:06;;;;;;;7.35;3.92;;;;;;;0.63;60.87;100676.77;1646757;87;21309;-81
2021/04/26 04:10:34;;;;;;;14.93;6.15;;;;;;;0.61;60.83;100683.74;1646943;87;21141;-81
2021/04/26 04:13:02;;;;;;;13.03;5.03;;;;;;;0.62;60.89;100686.73;1646771;87;21565;-81
2021/04/26 04:15:29;;;;;;;11.40;4.47;;;;;;;0.61;61.03;100690.23;1647056;87;21256;-81
2021/04/26 04:17:58;;;;;;;12.00;5.35;;;;;;;0.61;61.10;100693.28;1647217;87;21261;-81
2021/04/26 04:20:25;;;;;;;10.80;4.35;;;;;;;0.61;61.03;100691.98;1647087;87;21165;-81
2021/04/26 04:22:52;;;;;;;9.48;5.25;;;;;;;0.62;61.09;100691.08;1646993;87;21135;-81
2021/04/26 04:25:20;;;;;;;9.50;4.42;;;;;;;0.63;61.09;100696.70;1647049;87;21281;-81
2021/04/26 04:27:47;;;;;;;12.07;6.47;;;;;;;0.64;60.96;100697.10;1647046;87;21159;-81
2021/04/26 04:30:15;;;;;;;9.30;4.47;;;;;;;0.66;61.30;100704.42;1647075;87;21544;-81
2021/04/26 04:32:43;;;;;;;11.35;6.05;;;;;;;0.67;60.98;100699.17;1646944;87;21183;-81
2021/04/26 04:35:10;;;;;;;9.65;5.22;;;;;;;0.69;61.31;100700.41;1647185;87;21134;-81
2021/04/26 04:37:37;;;;;;;11.83;5.55;;;;;;;0.68;61.13;100702.62;1646919;87;21138;-81
2021/04/26 04:40:06;;;;;;;12.73;5.50;;;;;;;0.69;61.22;100699.12;1647317;87;21214;-81
2021/04/26 04:42:33;;;;;;;14.07;4.90;;;;;;;0.71;61.06;100699.94;1664765;85;21205;-81
2021/04/26 04:45:00;;;;;;;13.08;4.35;;;;;;;0.73;61.19;100707.27;1675761;85;21166;-81
2021/04/26 04:47:27;;;;;;;7.75;4.50;;;;;;;0.74;61.02;100706.81;1675598;85;21127;-81
2021/04/26 04:49:54;;;;;;;12.35;4.30;;;;;;;0.77;61.08;100710.63;1675903;85;21589;-81
2021/04/26 04:52:21;;;;;;;14.40;5.95;;;;;;;0.81;61.15;100710.95;1660011;85;21154;-81
2021/04/26 04:54:48;;;;;;;10.95;4.17;;;;;;;0.88;61.04;100711.19;1647174;87;21186;-81
2021/04/26 04:57:15;;;;;;;15.30;5.83;;;;;;;0.92;61.04;100708.91;1646834;87;21594;-81
2021/04/26 04:59:42;;;;;;;13.22;6.25;;;;;;;1.01;61.30;100715.16;1646974;87;21582;-81
2021/04/26 05:02:09;;;;;;;8.03;4.42;;;;;;;1.10;61.53;100706.27;1647038;87;21343;-81
2021/04/26 05:04:36;;;;;;;10.60;4.50;;;;;;;1.20;61.37;100709.47;1647078;87;21208;-81
2021/04/26 05:07:03;;;;;;;10.40;5.25;;;;;;;1.29;61.48;100710.52;1646933;87;21192;-81
2021/04/26 05:09:31;;;;;;;9.65;4.20;;;;;;;1.36;60.81;100703.79;1647054;87;21190;-81
2021/04/26 05:11:59;;;;;;;7.47;3.65;;;;;;;1.45;60.52;100713.51;1646904;87;21170;-81
2021/04/26 05:14:27;;;;;;;13.98;4.30;;;;;;;1.50;60.28;100722.05;1647071;87;21126;-81
2021/04/26 05:16:57;;;;;;;7.35;3.70;;;;;;;1.53;60.04;100709.80;1646856;87;21220;-81
2021/04/26 05:19:24;;;;;;;9.93;4.28;;;;;;;1.57;60.09;100712.70;1647154;87;21221;-81
2021/04/26 05:21:51;;;;;;;8.68;3.83;;;;;;;1.60;60.09;100716.52;1646856;87;21131;-81
2021/04/26 05:24:18;;;;;;;7.35;3.42;;;;;;;1.66;60.00;100714.66;1647170;87;21174;-81
2021/04/26 05:26:45;;;;;;;11.57;3.90;;;;;;;1.71;60.11;100721.44;1646878;87;21196;-81
2021/04/26 05:29:12;;;;;;;7.40;3.90;;;;;;;1.73;59.94;100713.56;1647167;87;21332;-81
2021/04/26 05:31:39;;;;;;;12.33;5.33;;;;;;;1.77;60.09;100713.88;1645565;87;21154;-81
2021/04/26 05:34:06;;;;;;;8.68;4.47;;;;;;;1.79;60.14;100714.23;1645927;87;21624;-81
2021/04/26 05:36:33;;;;;;;8.50;4.15;;;;;;;1.83;60.32;100708.03;1646649;87;21147;-81
2021/04/26 05:39:00;;;;;;;11.73;4.53;;;;;;;1.87;60.30;100707.03;1646495;87;21158;-81
2021/04/26 05:41:27;;;;;;;12.30;4.90;;;;;;;1.92;60.13;100710.81;1646449;87;21194;-81
2021/04/26 05:43:54;;;;;;;12.65;5.08;;;;;;;1.94;59.90;100714.66;1646515;87;21190;-81
2021/04/26 05:46:22;;;;;;;8.73;4.67;;;;;;;1.98;60.22;100711.93;1646579;87;21328;-81
2021/04/26 05:48:50;;;;;;;9.40;4.12;;;;;;;2.04;60.57;100709.14;1646494;87;21174;-81
2021/04/26 05:51:17;;;;;;;12.25;4.35;;;;;;;2.07;60.02;100707.75;1646581;87;21197;-81
2021/04/26 05:53:44;;;;;;;9.60;4.10;;;;;;;2.09;60.41;100708.98;1646445;87;21538;-81
2021/04/26 05:56:11;;;;;;;11.78;4.62;;;;;;;2.13;60.32;100707.13;1646183;87;21193;-81
2021/04/26 05:58:38;;;;;;;9.55;3.70;;;;;;;2.17;60.58;100708.28;1646490;87;21190;-82
2021/04/26 06:01:06;;;;;;;13.28;5.03;;;;;;;2.22;60.33;100713.36;1646269;87;21170;-81
2021/04/26 06:03:33;;;;;;;10.00;4.53;;;;;;;2.27;60.41;100715.34;1652329;85;21166;-81
2021/04/26 06:06:00;;;;;;;8.25;4.30;;;;;;;2.32;60.42;100713.00;1669531;85;21217;-81
2021/04/26 06:08:27;;;;;;;10.72;4.00;;;;;;;2.39;60.18;100714.95;1646306;87;21730;-81
2021/04/26 06:10:54;;;;;;;10.03;4.97;;;;;;;2.43;60.12;100713.95;1646623;87;21131;-81
2021/04/26 06:13:22;;;;;;;12.93;4.70;;;;;;;2.39;60.05;100703.69;1647869;87;21279;-81
2021/04/26 06:15:49;;;;;;;13.00;5.25;;;;;;;2.48;60.33;100708.15;1646687;87;21190;-81
2021/04/26 06:18:20;;;;;;;9.25;4.53;;;;;;;2.52;60.36;100714.95;1646539;87;21562;-81
2021/04/26 06:20:51;;;;;;;15.53;5.08;;;;;;;2.53;60.25;100710.59;1646557;87;21155;-81
2021/04/26 06:23:19;;;;;;;7.62;3.95;;;;;;;2.55;60.52;100706.19;1646340;87;21162;-81
2021/04/26 06:25:47;;;;;;;7.50;5.15;;;;;;;2.59;60.60;100709.09;1646554;87;21601;-81
2021/04/26 06:28:15;;;;;;;9.90;4.22;;;;;;;2.62;60.77;100710.29;1646366;87;21619;-81
2021/04/26 06:30:46;;;;;;;8.95;3.83;;;;;;;2.65;60.47;100706.28;1646443;87;21612;-81
2021/04/26 06:33:16;;;;;;;9.75;4.12;;;;;;;2.70;60.80;100701.78;1646456;87;21281;-81
2021/04/26 06:35:46;;;;;;;7.87;3.60;;;;;;;2.75;60.85;100706.82;1646407;87;21313;-82
2021/04/26 06:38:13;;;;;;;7.72;3.55;;;;;;;2.79;60.78;100702.73;1646385;87;21165;-81
2021/04/26 06:40:41;;;;;;;9.08;3.40;;;;;;;2.87;61.12;100697.73;1646546;87;21158;-81
2021/04/26 06:43:11;;;;;;;5.20;2.65;;;;;;;2.95;60.92;100697.85;1646553;87;21178;-81
2021/04/26 06:45:39;;;;;;;8.03;2.90;;;;;;;3.02;60.49;100697.18;1645162;86;21198;-81
2021/04/26 06:48:08;;;;;;;7.55;2.80;;;;;;;3.07;60.58;100690.06;1646383;87;21193;-81
2021/04/26 06:50:36;;;;;;;6.83;2.10;;;;;;;3.14;60.47;100691.53;1646495;87;21169;-81
2021/04/26 06:53:03;;;;;;;5.47;2.58;;;;;;;3.21;60.68;100688.25;1646394;87;21137;-81
2021/04/26 06:55:31;;;;;;;6.90;2.58;;;;;;;3.28;60.60;100690.57;1646540;87;21344;-81
2021/04/26 06:57:59;;;;;;;9.68;2.80;;;;;;;3.33;60.27;100678.68;1652518;85;21071;-81
2021/04/26 07:00:27;;;;;;;7.35;2.67;;;;;;;3.40;60.53;100680.15;1655956;85;21440;-81
2021/04/26 07:02:56;;;;;;;5.35;2.58;;;;;;;3.45;60.12;100675.59;1647615;85;21291;-82
2021/04/26 07:05:24;;;;;;;7.25;2.95;;;;;;;3.50;60.05;100678.05;1618821;87;21143;-82
2021/04/26 07:07:52;;;;;;;5.60;2.15;;;;;;;3.55;60.15;100678.70;1646303;87;21183;-82
2021/04/26 07:10:19;;;;;;;6.97;2.85;;;;;;;3.60;59.83;100674.18;1645027;87;21141;-81
2021/04/26 07:12:46;;;;;;;2.37;1.02;;;;;;;3.62;59.86;100669.77;1645711;87;21153;-81
2021/04/26 07:15:15;;;;;;;4.72;1.42;;;;;;;3.69;59.36;100666.00;1648562;85;21167;-81
2021/04/26 07:17:43;;;;;;;3.15;1.40;;;;;;;3.76;59.68;100670.07;1670187;85;21150;-82
2021/04/26 07:20:13;;;;;;;3.15;1.37;;;;;;;3.90;60.08;100666.06;1646426;87;21795;-81
2021/04/26 07:22:41;;;;;;;3.15;1.65;;;;;;;4.00;58.99;100656.49;1646091;87;21170;-82
2021/04/26 07:25:09;;;;;;;3.17;1.75;;;;;;;4.09;58.68;100658.36;1646134;87;21162;-82
2021/04/26 07:27:36;;;;;;;4.75;0.98;;;;;;;4.18;58.56;100656.22;1646419;87;21145;-82
2021/04/26 07:30:06;;;;;;;2.02;1.00;;;;;;;4.30;56.84;100662.69;1646331;87;21130;-82
2021/04/26 07:32:33;;;;;;;3.33;1.32;;;;;;;4.39;56.54;100657.55;1646369;87;21194;-82
2021/04/26 07:35:00;;;;;;;2.98;1.45;;;;;;;4.48;57.27;100651.95;1646313;87;21166;-82
2021/04/26 07:37:27;;;;;;;5.67;2.90;;;;;;;4.57;57.19;100644.99;1645599;85;21185;-82
2021/04/26 07:39:54;;;;;;;4.05;1.07;;;;;;;4.69;56.60;100655.39;1647328;85;21204;-82
2021/04/26 07:42:22;;;;;;;4.25;1.40;;;;;;;4.82;56.06;100651.80;1646560;87;21182;-82
2021/04/26 07:44:49;;;;;;;1.85;1.47;;;;;;;4.92;54.54;100647.86;1646300;87;21349;-82
2021/04/26 07:47:16;;;;;;;2.62;1.27;;;;;;;4.96;54.46;100644.19;1645768;87;21135;-82
2021/04/26 07:49:43;;;;;;;2.77;1.35;;;;;;;5.05;53.91;100646.86;1649344;85;21184;-82
2021/04/26 07:52:10;;;;;;;4.78;1.77;;;;;;;5.13;54.94;100644.73;1644466;85;21815;-82
2021/04/26 07:54:37;;;;;;;5.55;1.87;;;;;;;5.21;54.38;100647.03;1648145;87;21150;-82
2021/04/26 07:57:07;;;;;;;9.15;3.33;;;;;;;5.28;55.00;100645.83;1647752;87;21671;-82
2021/04/26 07:59:35;;;;;;;5.00;2.52;;;;;;;5.38;54.80;100639.25;1647834;87;21609;-82
2021/04/26 08:02:02;;;;;;;2.12;1.45;;;;;;;5.49;54.91;100634.81;1647836;87;21654;-82
2021/04/26 08:04:29;;;;;;;4.12;1.62;;;;;;;5.58;54.04;100626.08;1647599;87;21779;-82
2021/04/26 08:06:57;;;;;;;2.58;1.37;;;;;;;5.71;54.67;100638.13;1647840;87;21220;-82
2021/04/26 08:09:24;;;;;;;5.65;2.85;;;;;;;5.88;53.79;100638.16;1667976;85;21188;-82
2021/04/26 08:11:51;;;;;;;3.17;1.92;;;;;;;6.02;53.65;100641.48;1675156;85;21166;-82
2021/04/26 08:14:18;;;;;;;2.70;1.47;;;;;;;6.05;53.31;100643.92;1675266;85;21197;-82
2021/04/26 08:16:45;;;;;;;1.82;0.90;;;;;;;6.05;53.31;100647.86;1654171;85;21225;-82
2021/04/26 08:19:12;;;;;;;3.52;1.10;;;;;;;6.08;50.88;100645.09;1646661;87;21190;-82
2021/04/26 08:21:39;;;;;;;4.40;1.20;;;;;;;6.18;51.91;100640.25;1645881;87;21665;-82
2021/04/26 08:24:07;;;;;;;6.67;1.85;;;;;;;6.31;51.80;100640.02;1646468;87;21269;-83
2021/04/26 08:26:34;;;;;;;2.67;1.35;;;;;;;6.41;51.52;100648.27;1646698;85;21167;-82
2021/04/26 08:29:01;;;;;;;2.15;1.67;;;;;;;6.47;51.32;100639.27;1647717;85;21296;-83
2021/04/26 08:31:28;;;;;;;3.95;1.60;;;;;;;6.51;51.24;100641.64;1647417;87;21153;-83
2021/04/26 08:33:55;;;;;;;3.42;1.98;;;;;;;6.60;51.39;100642.11;1646436;85;21189;-83
2021/04/26 08:36:22;;;;;;;2.92;1.10;;;;;;;6.69;50.85;100644.27;1648426;85;22507;-82
2021/04/26 08:38:49;;;;;;;4.42;1.32;;;;;;;6.73;49.86;100647.11;1647403;85;21562;-82
2021/04/26 08:41:16;;;;;;;1.90;1.10;;;;;;;6.78;50.12;100635.47;1647945;85;21317;-82
2021/04/26 08:43:46;;;;;;;2.50;1.47;;;;;;;6.78;48.40;100638.56;1647193;87;21569;-83
2021/04/26 08:46:14;;;;;;;3.02;1.65;;;;;;;6.77;49.41;100646.02;1646736;87;21211;-82
2021/04/26 08:48:41;;;;;;;2.80;1.00;;;;;;;6.87;49.35;100644.61;1646478;87;21188;-83
2021/04/26 08:51:08;;;;;;;3.00;1.62;;;;;;;6.92;50.63;100646.55;1648315;85;21162;-82
2021/04/26 08:53:36;;;;;;;1.95;1.07;;;;;;;6.97;50.42;100647.61;1663795;85;21321;-82
2021/04/26 08:56:08;;;;;;;2.98;1.20;;;;;;;6.99;49.29;100645.30;1647771;85;21273;-82
2021/04/26 08:58:35;;;;;;;4.33;1.45;;;;;;;7.07;48.78;100631.76;1647801;85;21170;-83
2021/04/26 09:01:04;;;;;;;5.33;1.42;;;;;;;7.16;47.95;100642.23;1648085;87;21148;-83
2021/04/26 09:03:37;;;;;;;2.55;1.10;;;;;;;7.22;48.91;100642.77;1647442;85;21299;-83
2021/04/26 09:06:12;;;;;;;2.58;1.00;;;;;;;7.31;48.97;100639.27;1646659;85;21305;-82
2021/04/26 09:08:50;;;;;;;2.17;1.00;;;;;;;7.34;47.59;100633.39;1646142;85;21390;-82
2021/04/26 09:11:18;;;;;;;1.52;0.70;;;;;;;7.36;47.86;100631.98;1650056;85;21169;-82
2021/04/26 09:13:47;;;;;;;2.85;1.42;;;;;;;7.36;47.10;100639.86;1651740;85;21191;-82
2021/04/26 09:16:22;;;;;;;1.95;1.00;;;;;;;7.34;47.00;100637.33;1649023;85;21125;-82
2021/04/26 09:19:05;;;;;;;1.02;0.95;;;;;;;7.34;46.78;100632.08;1661255;85;21135;-82
2021/04/26 09:21:44;;;;;;;2.65;1.17;;;;;;;7.37;46.88;100631.91;1646626;87;21216;-81
2021/04/26 09:24:26;;;;;;;2.67;0.93;;;;;;;7.41;47.57;100632.59;1647253;85;21164;-81
2021/04/26 09:27:10;;;;;;;3.15;1.72;;;;;;;7.44;46.13;100631.11;1646642;85;21291;-82
2021/04/26 09:29:39;;;;;;;3.25;1.02;;;;;;;7.32;45.80;100632.61;1644229;85;21496;-82
2021/04/26 09:32:15;;;;;;;2.45;1.05;;;;;;;7.25;46.13;100629.95;1646968;85;21197;-82
2021/04/26 09:34:51;;;;;;;2.08;1.10;;;;;;;7.23;46.11;100629.16;1646765;85;21209;-82
2021/04/26 09:37:27;;;;;;;3.35;0.95;;;;;;;7.32;46.42;100624.73;1645347;85;21208;-82
2021/04/26 09:40:11;;;;;;;2.45;0.88;;;;;;;7.43;46.69;100626.30;1648275;85;21200;-82
2021/04/26 09:42:55;;;;;;;6.37;1.25;;;;;;;7.61;45.44;100623.61;1648261;85;21144;-82
2021/04/26 09:45:37;;;;;;;3.02;0.85;;;;;;;7.82;46.09;100622.40;1640958;85;21261;-82
2021/04/26 09:48:19;;;;;;;2.65;0.80;;;;;;;8.01;45.27;100614.33;1644290;85;21315;-82
2021/04/26 09:51:20;;;;;;;3.65;1.10;;;;;;;8.09;45.11;100612.56;1646438;85;21143;-82
2021/04/26 09:53:55;;;;;;;12.00;6.78;;;;;;;8.15;44.94;100609.11;1647996;85;21186;-82
2021/04/26 09:56:26;;;;;;;7.28;2.20;;;;;;;8.12;44.49;100603.19;1643364;85;21158;-82
2021/04/26 09:58:56;;;;;;;2.42;1.22;;;;;;;8.03;44.03;100608.52;1650018;85;21188;-83
2021/04/26 10:01:24;;;;;;;2.17;1.35;;;;;;;7.93;45.25;100612.14;1647046;85;21671;-82
2021/04/26 10:03:52;;;;;;;2.55;1.10;;;;;;;7.88;44.99;100614.64;1642971;85;21656;-82
2021/04/26 10:06:23;;;;;;;2.45;1.37;;;;;;;7.95;44.65;100606.31;1648173;85;21228;-82
2021/04/26 10:08:54;;;;;;;2.67;1.12;;;;;;;8.09;44.51;100604.67;1647563;85;21147;-82
2021/04/26 10:11:25;;;;;;;2.62;1.30;;;;;;;8.25;44.92;100600.22;1663203;85;21565;-83
2021/04/26 10:14:05;;;;;;;2.10;0.95;;;;;;;8.37;43.86;100602.14;1645851;87;22413;-83
2021/04/26 10:16:56;;;;;;;2.20;1.20;;;;;;;8.50;43.85;100594.41;1643202;87;21779;-83
2021/04/26 10:19:36;;;;;;;1.35;0.88;;;;;;;8.55;44.81;100589.70;1649697;85;22197;-82
2021/04/26 10:22:06;;;;;;;3.27;1.30;;;;;;;8.70;43.43;100581.36;1659742;85;21558;-82
2021/04/26 10:24:34;;;;;;;4.00;1.47;;;;;;;8.77;43.90;100585.31;1666876;85;21186;-82
2021/04/26 10:27:11;;;;;;;2.33;1.17;;;;;;;8.78;43.19;100585.67;1661892;85;21237;-82
2021/04/26 10:29:39;;;;;;;4.15;1.35;;;;;;;8.71;42.99;100580.42;1653772;85;21738;-81
2021/04/26 10:32:11;;;;;;;3.45;1.92;;;;;;;8.66;42.82;100578.55;1658350;85;21570;-82
2021/04/26 10:34:50;;;;;;;4.27;1.63;;;;;;;8.72;43.79;100575.55;1657046;85;21192;-82
2021/04/26 10:37:21;;;;;;;2.65;1.15;;;;;;;8.78;43.31;100567.26;1647790;85;21134;-83
2021/04/26 10:40:05;;;;;;;2.00;0.85;;;;;;;8.77;42.62;100564.26;1645714;85;21127;-82
2021/04/26 10:42:48;;;;;;;2.80;1.95;;;;;;;8.78;42.89;100566.41;1647247;85;21150;-82
2021/04/26 10:45:25;;;;;;;3.43;1.37;;;;;;;8.80;42.40;100562.76;1645678;85;21173;-81
2021/04/26 10:48:04;;;;;;;2.83;0.95;;;;;;;8.75;42.33;100559.55;1651702;85;21657;-82
2021/04/26 10:50:34;;;;;;;2.00;0.90;;;;;;;8.68;42.32;100556.92;1649239;85;21135;-82
2021/04/26 10:53:04;;;;;;;5.42;3.02;;;;;;;8.65;41.95;100561.05;1657508;85;21159;-82
2021/04/26 10:55:37;;;;;;;2.05;1.20;;;;;;;8.52;42.15;100565.36;1650091;85;21320;-82
2021/04/26 10:58:24;;;;;;;2.20;2.00;;;;;;;8.36;41.55;100561.48;1649534;85;21333;-82
2021/04/26 11:00:52;;;;;;;1.32;0.80;;;;;;;8.31;42.42;100563.05;1653804;85;21618;-83
2021/04/26 11:03:29;;;;;;;2.33;1.30;;;;;;;8.40;42.17;100556.45;1649675;85;21671;-82
2021/04/26 11:06:09;;;;;;;2.92;0.80;;;;;;;8.50;41.70;100547.06;1650325;85;21184;-79
2021/04/26 11:08:46;;;;;;;1.85;1.00;;;;;;;8.61;42.76;100545.92;1651329;85;21390;-80
2021/04/26 11:11:19;;;;;;;1.98;0.95;;;;;;;8.90;42.97;100548.09;1648263;85;21202;-80
2021/04/26 11:13:56;;;;;;;2.25;1.02;;;;;;;9.19;42.80;100539.33;1672046;85;21188;-80
2021/04/26 11:16:33;;;;;;;1.50;0.72;;;;;;;9.42;43.21;100539.17;1654483;85;21151;-80
2021/04/26 11:19:06;;;;;;;3.37;1.35;;;;;;;9.64;41.03;100534.20;1643970;85;21155;-80
2021/04/26 11:21:50;;;;;;;4.00;1.05;;;;;;;9.79;41.04;100535.81;1645663;87;21616;-80
2021/04/26 11:24:28;;;;;;;2.22;0.70;;;;;;;9.80;41.29;100532.22;1646133;87;21665;-80
2021/04/26 11:27:19;;;;;;;4.10;0.98;;;;;;;9.77;41.25;100535.09;1656949;85;21561;-80
2021/04/26 11:29:55;;;;;;;6.10;3.37;;;;;;;9.70;40.61;100528.51;1671081;85;21151;-80
2021/04/26 11:32:24;;;;;;;5.60;2.95;;;;;;;9.60;40.19;100526.95;1664437;85;21171;-80
2021/04/26 11:34:59;;;;;;;10.35;6.05;;;;;;;9.49;40.40;100528.61;1664056;85;21168;-80
2021/04/26 11:37:36;;;;;;;10.03;5.97;;;;;;;9.39;39.87;100523.09;1671431;85;21170;-80
2021/04/26 11:40:19;;;;;;;4.75;2.85;;;;;;;9.26;40.05;100526.97;1649908;85;21120;-80
2021/04/26 11:42:48;;;;;;;3.33;2.10;;;;;;;9.12;39.98;100517.33;1644598;85;21152;-80
2021/04/26 11:45:21;;;;;;;9.08;5.05;;;;;;;8.95;40.78;100521.50;1646577;87;21143;-80